Etusivu
METAR-TAF:

METAR-TAF

Lentoasemat :

Lublin, Puola

Leveyspiiri: 51-13-55N, Pituuspiiri: 22-41-25E, korkeus merenpinnasta: 203 m

Tämänhetkinen sää

Tämä raportti tehtiin 21 minuuttia sitten, kello 22.00 UTC
Tuuli 7 kn pohjoisen/luoteesta
Lämpötila 22°C
Kosteus 73%
Ilmanpaine 1019 hPa
Näkyvyys 10 km tai enemmän
ei pilviä alle 1500 m:ssä eikä cumulonimbus-pilviä

METAR: EPLB 172200Z 33007KT CAVOK 22/17 Q1019

Aika: 00:21 (22:21 UTC)

Sääennuste

Tämä raportti tehtiin 4 tuntia ja 51 minuuttia sitten, kello 17.30 UTC
Ennuste voimassa 17. päivästä klo 18 UTC - 18. päivään klo 18 UTC
Tuuli 5 kn pohjoisen/luoteesta
Näkyvyys 10 km tai enemmän
ei pilviä alle 1500 m:ssä eikä cumulonimbus-pilviä
Todennäköisyys 30% :
Ajoittain
17. päivästä klo 18 UTC - 17. päivään klo 20 UTC
Muutamia pilviä 5000 ft:n korkeudessa, Cumulonimbus.

TAF: EPLB 171730Z 1718/1818 34005KT CAVOK PROB30 TEMPO 1718/1720 FEW050CB

Säähavainnot ja -ennusteet yli 4000 lentoasemalta (METAR- ja TAF-raportit).

Käytössä olevat sääasemat on merkitty karttaan keltaisilla ja punaisilla pisteillä.

Aseta hiiri pisteen päälle nähdäksesi sääaseman nimen.

Klikkaa sitten nähdäksesi säähavainnot ja -ennusteet.

Kartan vaihtaminen: klikkaa mustalla rastilla varustettuja vihreitä pisteitä, niin voit zoomata sisään; viivalla varustettua vihreää pistettä, niin voit zoomata ulos tai vihreitä nuolia, niin pääset viereisille kartoille.


METAR-TAF: